Flight Track Log - Related Links

Times and Time Zones

All times are in EDT time to prevent confusion due to time zone crossing. See the ASQ5463 flight status page for this flight to view local times or setup timezone preferences in your user account.

Time Position Orientation Groundspeed Altitude Reporting Facility
EDT Latitude Longitude Course Direction KTS MPH feet Rate Location/Type
Fri 05:25:29 PM 35.7161 -84.0261 151° Southeast 260 299 21,000  Level Atlanta Center
Fri 05:26:29 PM 35.6514 -83.9775 149° Southeast 287 330 8,000 -5,200 Descending Atlanta Center
Fri 05:27:29 PM 35.5847 -83.9342 152° Southeast 287 330 10,600 1,700 Climbing Atlanta Center
Fri 05:28:29 PM 35.5053 -83.8756 149° Southeast 303 349 11,400 1,350 Climbing Atlanta Center
Fri 05:29:29 PM 35.4156 -83.8094 149° Southeast 328 377 13,300 1,950 Climbing Atlanta Center
Fri 05:30:00 PM 35.3512 -84.0877 151° Southeast  Level Estimated
Fri 05:30:29 PM 35.3300 -83.7511 151° Southeast 345 397 15,300  Level Atlanta Center
Fri 05:31:29 PM 35.2464 -83.6903 149° Southeast 350 403 17,600 1,850 Climbing Atlanta Center
Fri 05:32:29 PM 35.1667 -83.6347 150° Southeast 350 403 19,000 1,150 Climbing Atlanta Center
Fri 05:33:29 PM 35.0811 -83.5744 150° Southeast 350 403 19,900 1,000 Climbing Atlanta Center
Fri 05:34:29 PM 34.9931 -83.5114 150° Southeast 360 414 21,000 550 Climbing Atlanta Center
Fri 05:35:29 PM 34.9053 -83.4511 151° Southeast 360 414 21,000  Level Atlanta Center
Fri 05:36:29 PM 34.8194 -83.3911 150° Southeast 360 414 21,000  Level Atlanta Center
Fri 05:37:29 PM 34.7339 -83.3892 179° South 315 362 21,000  Level Atlanta Center
Fri 05:38:29 PM 34.6714 -83.4325 210° Southwest 295 339 21,000  Level Atlanta Center
Fri 05:39:29 PM 34.5819 -83.4889 207° Southwest 306 352 21,000 -550 Level Atlanta Center
Fri 05:40:29 PM 34.5092 -83.5472 213° Southwest 312 359 19,900 -1,450 Descending Atlanta Center
Fri 05:41:29 PM 34.4383 -83.5981 211° Southwest 312 359 18,100 -1,900 Descending Atlanta Center
Fri 05:42:29 PM 34.3697 -83.6461 210° Southwest 295 339 16,100 -1,950 Descending Atlanta Center
Fri 05:43:29 PM 34.3031 -83.6917 209° Southwest 282 325 14,200 -1,900 Descending Atlanta Center
Fri 05:44:29 PM 34.2406 -83.7372 211° Southwest 282 325 12,300 -1,100 Descending Atlanta Center
Fri 05:45:29 PM 34.1717 -83.7828 209° Southwest 277 319 12,000 -150 Descending Atlanta Center
Fri 05:46:29 PM 34.1092 -83.8281 211° Southwest 266 306 12,000 -400 Level Atlanta Center
Fri 05:47:29 PM 34.0572 -83.8758 217° Southwest 251 289 11,200 -1,353 Descending Atlanta Center
Fri 05:48:11 PM 34.0167 -83.9167 220° Southwest 234 269 9,700 -1,294 Descending Atlanta TRACON
Fri 05:49:11 PM 33.9667 -83.9500 209° Southwest 231 266 9,000 -350 Descending Atlanta TRACON
Fri 05:50:11 PM 33.9000 -83.9500 180° South 244 281 9,000  Level Atlanta TRACON
Fri 05:51:11 PM 33.8333 -83.9667 192° South 238 274 9,000  Level Atlanta TRACON
Fri 05:51:29 PM 33.8256 -83.9639 163° South 242 278 9,000 -992 Level Atlanta Center
Fri 05:53:12 PM 33.7000 -83.9833 187° South 248 285 7,000 -736 Descending Atlanta TRACON
Fri 05:54:12 PM 33.6500 -84.0000 196° South 231 266 7,000 -100 Level Atlanta TRACON
Fri 05:55:12 PM 33.6333 -84.0667 253° West 212 244 6,800 -600 Descending Atlanta TRACON
Fri 05:56:12 PM 33.6333 -84.1333 270° West 183 211 5,800 -950 Descending Atlanta TRACON
Fri 05:57:12 PM 33.6333 -84.1833 270° West 166 191 4,900 -900 Descending Atlanta TRACON
Fri 05:58:12 PM 33.6333 -84.2333 270° West 173 199 4,000 -950 Descending Atlanta TRACON
Fri 05:59:12 PM 33.6333 -84.3000 270° West 179 206 3,000 -900 Descending Atlanta TRACON
Fri 06:00:12 PM 33.6333 -84.3500 270° West 145 167 2,200 -800 Descending Atlanta TRACON
Fri 06:01:12 PM 33.6333 -84.4000 270° West 137 158 1,400 -800 Descending Atlanta TRACON
Fri 06:03:00 PM 33.6367 -84.4279 270° West  Level Estimated
Fri 06:10:00 PM 33.6367 -84.4279 64° Northeast  Level Estimated

Login

Don't have an account? Register now (free) for customized features, flight alerts, and more!